sensor_id;sensor_type;location;lat;lon;timestamp;pressure;altitude;pressure_sealevel;temperature;humidity
73566;BME280;61846;52.970;-3.168;2022-12-07T00:01:53;101688.51;;;7.01;39.72
73566;BME280;61846;52.970;-3.168;2022-12-07T00:04:19;101682.89;;;7.43;39.08
73566;BME280;61846;52.970;-3.168;2022-12-07T00:06:46;101684.08;;;7.52;38.36
73566;BME280;61846;52.970;-3.168;2022-12-07T00:09:12;101681.43;;;7.05;38.91
73566;BME280;61846;52.970;-3.168;2022-12-07T00:11:35;101675.83;;;7.48;38.75
73566;BME280;61846;52.970;-3.168;2022-12-07T00:14:02;101680.56;;;7.24;39.09
73566;BME280;61846;52.970;-3.168;2022-12-07T00:16:27;101680.53;;;6.26;40.95
73566;BME280;61846;52.970;-3.168;2022-12-07T00:18:51;101676.85;;;6.17;40.87
73566;BME280;61846;52.970;-3.168;2022-12-07T00:21:19;101672.73;;;6.70;40.06
73566;BME280;61846;52.970;-3.168;2022-12-07T00:23:44;101672.39;;;6.58;40.24
73566;BME280;61846;52.970;-3.168;2022-12-07T00:26:09;101671.46;;;7.13;39.28
73566;BME280;61846;52.970;-3.168;2022-12-07T00:28:34;101668.56;;;6.84;39.56
73566;BME280;61846;52.970;-3.168;2022-12-07T00:31:01;101668.60;;;6.59;39.95
73566;BME280;61846;52.970;-3.168;2022-12-07T00:33:24;101669.12;;;6.95;39.30
73566;BME280;61846;52.970;-3.168;2022-12-07T00:35:55;101672.90;;;6.17;40.52
73566;BME280;61846;52.970;-3.168;2022-12-07T00:38:15;101670.72;;;4.90;42.93
73566;BME280;61846;52.970;-3.168;2022-12-07T00:40:41;101669.50;;;5.20;43.15
73566;BME280;61846;52.970;-3.168;2022-12-07T00:43:06;101668.57;;;5.24;42.67
73566;BME280;61846;52.970;-3.168;2022-12-07T00:45:32;101668.67;;;5.04;43.81
73566;BME280;61846;52.970;-3.168;2022-12-07T00:47:57;101663.51;;;6.22;41.06
73566;BME280;61846;52.970;-3.168;2022-12-07T00:50:23;101659.88;;;6.01;41.40
73566;BME280;61846;52.970;-3.168;2022-12-07T00:52:49;101657.67;;;5.36;41.30
73566;BME280;61846;52.970;-3.168;2022-12-07T00:55:15;101657.70;;;6.02;41.59
73566;BME280;61846;52.970;-3.168;2022-12-07T00:57:41;101653.46;;;5.56;42.07
73566;BME280;61846;52.970;-3.168;2022-12-07T01:00:07;101651.63;;;6.24;40.97
73566;BME280;61846;52.970;-3.168;2022-12-07T01:02:30;101654.62;;;5.98;41.21
73566;BME280;61846;52.970;-3.168;2022-12-07T01:04:56;101652.04;;;5.63;41.86
73566;BME280;61846;52.970;-3.168;2022-12-07T01:07:21;101649.93;;;5.87;41.83
73566;BME280;61846;52.970;-3.168;2022-12-07T01:09:46;101645.17;;;5.73;41.33
73566;BME280;61846;52.970;-3.168;2022-12-07T01:12:12;101642.23;;;5.68;41.86
73566;BME280;61846;52.970;-3.168;2022-12-07T01:14:37;101641.28;;;6.32;40.88
73566;BME280;61846;52.970;-3.168;2022-12-07T01:17:03;101639.74;;;5.85;41.63
73566;BME280;61846;52.970;-3.168;2022-12-07T01:19:29;101640.24;;;5.86;41.59
73566;BME280;61846;52.970;-3.168;2022-12-07T01:21:54;101642.97;;;6.11;41.11
73566;BME280;61846;52.970;-3.168;2022-12-07T01:24:20;101644.29;;;6.77;39.90
73566;BME280;61846;52.970;-3.168;2022-12-07T01:26:45;101644.08;;;6.08;40.62
73566;BME280;61846;52.970;-3.168;2022-12-07T01:29:11;101647.54;;;6.32;40.96
73566;BME280;61846;52.970;-3.168;2022-12-07T01:31:36;101644.43;;;6.59;40.31
73566;BME280;61846;52.970;-3.168;2022-12-07T01:34:02;101643.17;;;6.60;39.91
73566;BME280;61846;52.970;-3.168;2022-12-07T01:36:29;101639.34;;;6.78;39.87
73566;BME280;61846;52.970;-3.168;2022-12-07T01:38:56;101638.01;;;5.75;41.33
73566;BME280;61846;52.970;-3.168;2022-12-07T01:41:20;101635.89;;;5.89;41.62
73566;BME280;61846;52.970;-3.168;2022-12-07T01:46:10;101639.38;;;4.74;43.32
73566;BME280;61846;52.970;-3.168;2022-12-07T01:48:39;101639.52;;;5.01;43.82
73566;BME280;61846;52.970;-3.168;2022-12-07T01:51:04;101640.05;;;5.07;43.26
73566;BME280;61846;52.970;-3.168;2022-12-07T01:53:29;101639.37;;;5.70;42.25
73566;BME280;61846;52.970;-3.168;2022-12-07T01:55:52;101643.87;;;5.53;42.58
73566;BME280;61846;52.970;-3.168;2022-12-07T01:58:18;101644.60;;;5.36;42.98
73566;BME280;61846;52.970;-3.168;2022-12-07T02:00:44;101645.09;;;4.50;44.66
73566;BME280;61846;52.970;-3.168;2022-12-07T02:03:13;101639.50;;;5.48;43.42
73566;BME280;61846;52.970;-3.168;2022-12-07T02:05:35;101637.14;;;5.34;43.04
73566;BME280;61846;52.970;-3.168;2022-12-07T02:08:00;101635.37;;;5.26;43.46
73566;BME280;61846;52.970;-3.168;2022-12-07T02:10:28;101634.45;;;5.13;43.86
73566;BME280;61846;52.970;-3.168;2022-12-07T02:12:54;101629.12;;;5.61;42.67
73566;BME280;61846;52.970;-3.168;2022-12-07T02:15:17;101634.48;;;4.76;44.59
73566;BME280;61846;52.970;-3.168;2022-12-07T02:17:47;101630.55;;;5.35;43.56
73566;BME280;61846;52.970;-3.168;2022-12-07T02:20:17;101627.14;;;5.09;44.21
73566;BME280;61846;52.970;-3.168;2022-12-07T02:25:05;101619.50;;;4.75;44.62
73566;BME280;61846;52.970;-3.168;2022-12-07T02:27:35;101618.62;;;5.23;43.47
73566;BME280;61846;52.970;-3.168;2022-12-07T02:29:56;101610.52;;;5.80;42.59
73566;BME280;61846;52.970;-3.168;2022-12-07T02:32:21;101612.10;;;5.76;42.53
73566;BME280;61846;52.970;-3.168;2022-12-07T02:34:46;101611.42;;;5.50;43.04
73566;BME280;61846;52.970;-3.168;2022-12-07T02:37:12;101615.86;;;4.29;45.70
73566;BME280;61846;52.970;-3.168;2022-12-07T02:39:39;101611.18;;;4.86;44.55
73566;BME280;61846;52.970;-3.168;2022-12-07T02:42:02;101612.45;;;4.86;44.04
73566;BME280;61846;52.970;-3.168;2022-12-07T02:44:25;101611.75;;;5.29;44.21
73566;BME280;61846;52.970;-3.168;2022-12-07T02:46:52;101611.08;;;4.95;43.88
73566;BME280;61846;52.970;-3.168;2022-12-07T02:49:14;101608.81;;;5.20;43.92
73566;BME280;61846;52.970;-3.168;2022-12-07T02:51:40;101600.85;;;5.29;42.97
73566;BME280;61846;52.970;-3.168;2022-12-07T02:54:09;101599.88;;;4.95;43.69
73566;BME280;61846;52.970;-3.168;2022-12-07T02:56:37;101598.39;;;4.98;43.29
73566;BME280;61846;52.970;-3.168;2022-12-07T02:59:02;101593.01;;;5.78;41.42
73566;BME280;61846;52.970;-3.168;2022-12-07T03:01:28;101597.58;;;4.95;42.91
73566;BME280;61846;52.970;-3.168;2022-12-07T03:03:51;101592.77;;;4.93;42.89
73566;BME280;61846;52.970;-3.168;2022-12-07T03:06:18;101591.37;;;4.40;44.36
73566;BME280;61846;52.970;-3.168;2022-12-07T03:08:46;101587.52;;;5.64;42.64
73566;BME280;61846;52.970;-3.168;2022-12-07T03:11:06;101583.30;;;5.45;42.61
73566;BME280;61846;52.970;-3.168;2022-12-07T03:13:32;101581.13;;;5.32;42.32
73566;BME280;61846;52.970;-3.168;2022-12-07T03:15:58;101580.79;;;4.81;43.17
73566;BME280;61846;52.970;-3.168;2022-12-07T03:18:21;101581.69;;;5.00;43.69
73566;BME280;61846;52.970;-3.168;2022-12-07T03:20:45;101585.15;;;4.28;44.28
73566;BME280;61846;52.970;-3.168;2022-12-07T03:23:10;101581.00;;;5.49;41.95
73566;BME280;61846;52.970;-3.168;2022-12-07T03:25:35;101578.97;;;4.96;42.79
73566;BME280;61846;52.970;-3.168;2022-12-07T03:28:02;101576.51;;;5.36;42.54
73566;BME280;61846;52.970;-3.168;2022-12-07T03:30:28;101572.96;;;5.52;41.70
73566;BME280;61846;52.970;-3.168;2022-12-07T03:32:53;101570.41;;;5.56;41.40
73566;BME280;61846;52.970;-3.168;2022-12-07T03:35:18;101567.27;;;5.49;41.48
73566;BME280;61846;52.970;-3.168;2022-12-07T03:37:45;101566.60;;;5.73;41.08
73566;BME280;61846;52.970;-3.168;2022-12-07T03:40:13;101567.68;;;5.04;42.01
73566;BME280;61846;52.970;-3.168;2022-12-07T03:42:33;101569.60;;;5.51;42.09
73566;BME280;61846;52.970;-3.168;2022-12-07T03:44:57;101566.92;;;5.03;43.27
73566;BME280;61846;52.970;-3.168;2022-12-07T03:47:26;101570.15;;;4.81;43.65
73566;BME280;61846;52.970;-3.168;2022-12-07T03:49:52;101569.08;;;4.40;43.35
73566;BME280;61846;52.970;-3.168;2022-12-07T03:52:20;101571.09;;;4.39;43.93
73566;BME280;61846;52.970;-3.168;2022-12-07T03:54:43;101568.51;;;4.52;44.25
73566;BME280;61846;52.970;-3.168;2022-12-07T03:57:05;101572.96;;;4.07;44.88
73566;BME280;61846;52.970;-3.168;2022-12-07T03:59:30;101577.03;;;3.68;44.88
73566;BME280;61846;52.970;-3.168;2022-12-07T04:02:01;101574.08;;;4.02;44.65
73566;BME280;61846;52.970;-3.168;2022-12-07T04:04:22;101571.54;;;4.03;44.67
73566;BME280;61846;52.970;-3.168;2022-12-07T04:06:47;101566.84;;;3.40;44.92
73566;BME280;61846;52.970;-3.168;2022-12-07T04:09:13;101559.49;;;4.62;43.61
73566;BME280;61846;52.970;-3.168;2022-12-07T04:11:38;101557.84;;;5.05;42.84
73566;BME280;61846;52.970;-3.168;2022-12-07T04:14:04;101556.94;;;5.29;42.14
73566;BME280;61846;52.970;-3.168;2022-12-07T04:16:29;101557.49;;;5.17;42.05
73566;BME280;61846;52.970;-3.168;2022-12-07T04:18:55;101552.95;;;5.03;42.44
73566;BME280;61846;52.970;-3.168;2022-12-07T04:21:20;101548.96;;;4.88;42.23
73566;BME280;61846;52.970;-3.168;2022-12-07T04:23:45;101543.42;;;5.18;41.22
73566;BME280;61846;52.970;-3.168;2022-12-07T04:26:11;101543.01;;;5.16;41.97
73566;BME280;61846;52.970;-3.168;2022-12-07T04:28:36;101542.69;;;5.51;41.29
73566;BME280;61846;52.970;-3.168;2022-12-07T04:31:01;101545.13;;;5.36;41.59
73566;BME280;61846;52.970;-3.168;2022-12-07T04:33:27;101548.92;;;4.79;42.43
73566;BME280;61846;52.970;-3.168;2022-12-07T04:35:52;101545.91;;;4.29;43.55
73566;BME280;61846;52.970;-3.168;2022-12-07T04:38:18;101546.37;;;4.46;43.21
73566;BME280;61846;52.970;-3.168;2022-12-07T04:40:43;101545.24;;;3.99;43.73
73566;BME280;61846;52.970;-3.168;2022-12-07T04:43:09;101542.63;;;4.31;43.32
73566;BME280;61846;52.970;-3.168;2022-12-07T04:45:34;101539.21;;;3.86;43.52
73566;BME280;61846;52.970;-3.168;2022-12-07T04:47:59;101544.67;;;2.79;46.21
73566;BME280;61846;52.970;-3.168;2022-12-07T04:50:25;101546.11;;;4.03;44.03
73566;BME280;61846;52.970;-3.168;2022-12-07T04:52:50;101543.92;;;3.30;45.57
73566;BME280;61846;52.970;-3.168;2022-12-07T04:55:16;101542.78;;;3.55;44.70
73566;BME280;61846;52.970;-3.168;2022-12-07T04:57:41;101540.61;;;3.60;44.78
73566;BME280;61846;52.970;-3.168;2022-12-07T05:00:07;101545.16;;;1.28;49.17
73566;BME280;61846;52.970;-3.168;2022-12-07T05:02:31;101542.97;;;2.85;46.12
73566;BME280;61846;52.970;-3.168;2022-12-07T05:04:57;101545.77;;;2.39;47.40
73566;BME280;61846;52.970;-3.168;2022-12-07T05:07:23;101548.01;;;2.26;46.98
73566;BME280;61846;52.970;-3.168;2022-12-07T05:09:48;101543.98;;;2.45;46.29
73566;BME280;61846;52.970;-3.168;2022-12-07T05:12:14;101544.93;;;3.55;44.45
73566;BME280;61846;52.970;-3.168;2022-12-07T05:14:39;101546.48;;;3.31;46.19
73566;BME280;61846;52.970;-3.168;2022-12-07T05:17:05;101543.89;;;3.38;45.61
73566;BME280;61846;52.970;-3.168;2022-12-07T05:19:31;101549.36;;;2.52;47.09
73566;BME280;61846;52.970;-3.168;2022-12-07T05:21:56;101557.08;;;2.17;48.08
73566;BME280;61846;52.970;-3.168;2022-12-07T05:24:21;101551.92;;;2.76;47.17
73566;BME280;61846;52.970;-3.168;2022-12-07T05:26:47;101557.24;;;2.23;47.93
73566;BME280;61846;52.970;-3.168;2022-12-07T05:29:13;101556.31;;;2.06;48.11
73566;BME280;61846;52.970;-3.168;2022-12-07T05:31:38;101553.49;;;3.07;46.16
73566;BME280;61846;52.970;-3.168;2022-12-07T05:34:03;101552.33;;;3.18;45.86
73566;BME280;61846;52.970;-3.168;2022-12-07T05:36:29;101552.09;;;3.26;44.93
73566;BME280;61846;52.970;-3.168;2022-12-07T05:38:55;101548.97;;;3.67;44.31
73566;BME280;61846;52.970;-3.168;2022-12-07T05:41:20;101553.26;;;3.46;45.44
73566;BME280;61846;52.970;-3.168;2022-12-07T05:43:46;101550.47;;;3.77;44.23
73566;BME280;61846;52.970;-3.168;2022-12-07T05:46:11;101545.60;;;4.32;43.44
73566;BME280;61846;52.970;-3.168;2022-12-07T05:48:37;101546.51;;;4.65;42.84
73566;BME280;61846;52.970;-3.168;2022-12-07T05:51:02;101547.85;;;3.60;44.70
73566;BME280;61846;52.970;-3.168;2022-12-07T05:53:27;101551.11;;;3.32;45.41
73566;BME280;61846;52.970;-3.168;2022-12-07T05:55:53;101553.59;;;3.47;44.20
73566;BME280;61846;52.970;-3.168;2022-12-07T05:58:18;101551.48;;;3.31;46.07
73566;BME280;61846;52.970;-3.168;2022-12-07T06:00:44;101551.49;;;3.32;44.59
73566;BME280;61846;52.970;-3.168;2022-12-07T06:03:10;101550.44;;;4.39;43.42
73566;BME280;61846;52.970;-3.168;2022-12-07T06:05:35;101550.80;;;3.90;44.04
73566;BME280;61846;52.970;-3.168;2022-12-07T06:08:00;101555.73;;;3.60;44.66
73566;BME280;61846;52.970;-3.168;2022-12-07T06:10:25;101550.80;;;3.90;43.69
73566;BME280;61846;52.970;-3.168;2022-12-07T06:12:51;101551.24;;;3.87;44.24
73566;BME280;61846;52.970;-3.168;2022-12-07T06:15:17;101557.75;;;1.36;49.04
73566;BME280;61846;52.970;-3.168;2022-12-07T06:17:42;101555.79;;;2.31;47.77
73566;BME280;61846;52.970;-3.168;2022-12-07T06:20:08;101554.90;;;1.80;49.32
73566;BME280;61846;52.970;-3.168;2022-12-07T06:22:33;101543.30;;;2.54;47.28
73566;BME280;61846;52.970;-3.168;2022-12-07T06:24:58;101546.15;;;1.98;48.50
73566;BME280;61846;52.970;-3.168;2022-12-07T06:27:24;101544.35;;;2.65;47.95
73566;BME280;61846;52.970;-3.168;2022-12-07T06:29:49;101540.80;;;2.18;47.80
73566;BME280;61846;52.970;-3.168;2022-12-07T06:32:15;101536.23;;;2.99;47.03
73566;BME280;61846;52.970;-3.168;2022-12-07T06:34:41;101534.83;;;3.37;46.19
73566;BME280;61846;52.970;-3.168;2022-12-07T06:37:06;101529.76;;;3.81;46.08
73566;BME280;61846;52.970;-3.168;2022-12-07T06:39:32;101522.06;;;3.48;46.11
73566;BME280;61846;52.970;-3.168;2022-12-07T06:41:57;101519.72;;;3.26;46.88
73566;BME280;61846;52.970;-3.168;2022-12-07T06:44:23;101521.27;;;2.96;48.25
73566;BME280;61846;52.970;-3.168;2022-12-07T06:46:48;101518.34;;;2.86;46.80
73566;BME280;61846;52.970;-3.168;2022-12-07T06:49:13;101519.39;;;2.27;49.16
73566;BME280;61846;52.970;-3.168;2022-12-07T06:51:39;101514.44;;;3.30;47.38
73566;BME280;61846;52.970;-3.168;2022-12-07T06:54:05;101515.19;;;3.35;47.58
73566;BME280;61846;52.970;-3.168;2022-12-07T06:56:30;101513.68;;;3.01;47.70
73566;BME280;61846;52.970;-3.168;2022-12-07T06:58:55;101523.52;;;1.06;51.77
73566;BME280;61846;52.970;-3.168;2022-12-07T07:01:20;101516.50;;;1.07;52.67
73566;BME280;61846;52.970;-3.168;2022-12-07T07:03:46;101512.75;;;2.23;50.93
73566;BME280;61846;52.970;-3.168;2022-12-07T07:06:12;101514.95;;;1.79;51.22
73566;BME280;61846;52.970;-3.168;2022-12-07T07:08:37;101510.65;;;2.45;49.76
73566;BME280;61846;52.970;-3.168;2022-12-07T07:11:02;101511.14;;;3.31;47.73
73566;BME280;61846;52.970;-3.168;2022-12-07T07:13:27;101507.46;;;3.93;46.58
73566;BME280;61846;52.970;-3.168;2022-12-07T07:15:53;101511.04;;;2.86;47.67
73566;BME280;61846;52.970;-3.168;2022-12-07T07:18:17;101514.15;;;3.47;47.62
73566;BME280;61846;52.970;-3.168;2022-12-07T07:20:43;101516.92;;;3.36;47.30
73566;BME280;61846;52.970;-3.168;2022-12-07T07:23:08;101517.83;;;3.31;47.53
73566;BME280;61846;52.970;-3.168;2022-12-07T07:25:34;101516.76;;;3.36;47.69
73566;BME280;61846;52.970;-3.168;2022-12-07T07:27:59;101515.48;;;3.25;47.80
73566;BME280;61846;52.970;-3.168;2022-12-07T07:30:24;101513.11;;;3.34;48.38
73566;BME280;61846;52.970;-3.168;2022-12-07T07:32:50;101510.26;;;3.49;46.76
73566;BME280;61846;52.970;-3.168;2022-12-07T07:35:16;101513.28;;;4.26;46.01
73566;BME280;61846;52.970;-3.168;2022-12-07T07:37:41;101508.48;;;4.31;45.47
73566;BME280;61846;52.970;-3.168;2022-12-07T07:40:07;101510.58;;;3.54;46.27
73566;BME280;61846;52.970;-3.168;2022-12-07T07:42:31;101507.02;;;4.16;45.52
73566;BME280;61846;52.970;-3.168;2022-12-07T07:44:57;101508.62;;;3.92;46.06
73566;BME280;61846;52.970;-3.168;2022-12-07T07:47:22;101506.17;;;4.28;45.43
73566;BME280;61846;52.970;-3.168;2022-12-07T07:49:48;101504.44;;;4.49;44.11
73566;BME280;61846;52.970;-3.168;2022-12-07T07:52:13;101500.35;;;5.00;42.95
73566;BME280;61846;52.970;-3.168;2022-12-07T07:54:39;101497.95;;;4.46;44.29
73566;BME280;61846;52.970;-3.168;2022-12-07T07:57:04;101498.30;;;5.37;42.81
73566;BME280;61846;52.970;-3.168;2022-12-07T07:59:29;101498.89;;;5.79;42.25
73566;BME280;61846;52.970;-3.168;2022-12-07T08:01:54;101496.99;;;5.44;42.59
73566;BME280;61846;52.970;-3.168;2022-12-07T08:04:21;101499.41;;;4.22;43.25
73566;BME280;61846;52.970;-3.168;2022-12-07T08:06:45;101497.57;;;4.38;43.41
73566;BME280;61846;52.970;-3.168;2022-12-07T08:09:12;101501.40;;;5.04;42.59
73566;BME280;61846;52.970;-3.168;2022-12-07T08:11:37;101499.13;;;4.75;43.67
73566;BME280;61846;52.970;-3.168;2022-12-07T08:14:02;101497.40;;;4.71;43.35
73566;BME280;61846;52.970;-3.168;2022-12-07T08:16:28;101495.95;;;4.60;43.91
73566;BME280;61846;52.970;-3.168;2022-12-07T08:18:53;101498.88;;;4.57;43.43
73566;BME280;61846;52.970;-3.168;2022-12-07T08:21:19;101495.56;;;5.66;42.10
73566;BME280;61846;52.970;-3.168;2022-12-07T08:23:45;101497.49;;;5.47;42.07
73566;BME280;61846;52.970;-3.168;2022-12-07T08:26:11;101501.80;;;4.98;43.35
73566;BME280;61846;52.970;-3.168;2022-12-07T08:28:35;101500.58;;;4.28;44.05
73566;BME280;61846;52.970;-3.168;2022-12-07T08:31:02;101501.60;;;5.07;42.76
73566;BME280;61846;52.970;-3.168;2022-12-07T08:33:26;101502.25;;;5.00;44.56
73566;BME280;61846;52.970;-3.168;2022-12-07T08:35:52;101497.95;;;4.25;44.60
73566;BME280;61846;52.970;-3.168;2022-12-07T08:38:17;101500.58;;;4.40;44.65
73566;BME280;61846;52.970;-3.168;2022-12-07T08:40:43;101502.32;;;4.60;44.74
73566;BME280;61846;52.970;-3.168;2022-12-07T08:43:08;101506.18;;;4.53;45.00
73566;BME280;61846;52.970;-3.168;2022-12-07T08:45:33;101502.36;;;4.55;44.47
73566;BME280;61846;52.970;-3.168;2022-12-07T08:48:03;101500.79;;;4.10;45.69
73566;BME280;61846;52.970;-3.168;2022-12-07T08:50:25;101507.49;;;5.06;44.06
73566;BME280;61846;52.970;-3.168;2022-12-07T08:52:53;101508.65;;;5.03;44.20
73566;BME280;61846;52.970;-3.168;2022-12-07T08:55:16;101502.28;;;4.68;44.63
73566;BME280;61846;52.970;-3.168;2022-12-07T08:57:41;101503.36;;;4.30;46.49
73566;BME280;61846;52.970;-3.168;2022-12-07T09:00:07;101498.15;;;4.36;45.49
73566;BME280;61846;52.970;-3.168;2022-12-07T09:02:31;101499.27;;;4.73;44.89
73566;BME280;61846;52.970;-3.168;2022-12-07T09:04:56;101491.58;;;4.14;45.95
73566;BME280;61846;52.970;-3.168;2022-12-07T09:07:21;101491.65;;;4.21;46.79
73566;BME280;61846;52.970;-3.168;2022-12-07T09:09:47;101490.33;;;3.91;45.51
73566;BME280;61846;52.970;-3.168;2022-12-07T09:12:12;101491.40;;;5.02;44.80
73566;BME280;61846;52.970;-3.168;2022-12-07T09:14:38;101491.67;;;5.12;44.00
73566;BME280;61846;52.970;-3.168;2022-12-07T09:17:07;101491.24;;;5.15;44.38
73566;BME280;61846;52.970;-3.168;2022-12-07T09:19:29;101492.78;;;5.01;44.83
73566;BME280;61846;52.970;-3.168;2022-12-07T09:21:54;101491.14;;;4.89;44.85
73566;BME280;61846;52.970;-3.168;2022-12-07T09:24:20;101489.10;;;4.32;45.89
73566;BME280;61846;52.970;-3.168;2022-12-07T09:26:45;101496.33;;;3.45;47.34
73566;BME280;61846;52.970;-3.168;2022-12-07T09:29:11;101494.14;;;4.24;47.09
73566;BME280;61846;52.970;-3.168;2022-12-07T09:31:37;101497.71;;;3.56;48.60
73566;BME280;61846;52.970;-3.168;2022-12-07T09:34:02;101494.28;;;3.72;47.21
73566;BME280;61846;52.970;-3.168;2022-12-07T09:36:28;101491.81;;;4.36;45.86
73566;BME280;61846;52.970;-3.168;2022-12-07T09:38:52;101492.90;;;4.31;45.99
73566;BME280;61846;52.970;-3.168;2022-12-07T09:41:18;101492.05;;;4.94;44.81
73566;BME280;61846;52.970;-3.168;2022-12-07T09:43:44;101492.19;;;4.36;45.48
73566;BME280;61846;52.970;-3.168;2022-12-07T09:46:14;101491.22;;;4.41;46.28
73566;BME280;61846;52.970;-3.168;2022-12-07T09:48:37;101488.14;;;4.37;46.53
73566;BME280;61846;52.970;-3.168;2022-12-07T09:51:01;101486.88;;;4.50;46.17
73566;BME280;61846;52.970;-3.168;2022-12-07T09:53:27;101485.62;;;4.87;45.43
73566;BME280;61846;52.970;-3.168;2022-12-07T09:55:51;101483.56;;;5.26;45.05
73566;BME280;61846;52.970;-3.168;2022-12-07T09:58:20;101487.52;;;4.70;45.82
73566;BME280;61846;52.970;-3.168;2022-12-07T10:00:43;101488.75;;;4.71;46.40
73566;BME280;61846;52.970;-3.168;2022-12-07T10:03:08;101486.94;;;4.23;46.85
73566;BME280;61846;52.970;-3.168;2022-12-07T10:05:36;101492.63;;;4.61;46.56
73566;BME280;61846;52.970;-3.168;2022-12-07T10:07:59;101491.22;;;5.21;46.38
73566;BME280;61846;52.970;-3.168;2022-12-07T10:10:26;101487.98;;;4.76;46.44
73566;BME280;61846;52.970;-3.168;2022-12-07T10:12:56;101483.19;;;4.77;45.93
73566;BME280;61846;52.970;-3.168;2022-12-07T10:15:16;101485.87;;;5.22;45.68
73566;BME280;61846;52.970;-3.168;2022-12-07T10:17:47;101483.40;;;5.22;45.90
73566;BME280;61846;52.970;-3.168;2022-12-07T10:20:16;101480.01;;;5.71;45.36
73566;BME280;61846;52.970;-3.168;2022-12-07T10:22:32;101476.22;;;5.70;44.65
73566;BME280;61846;52.970;-3.168;2022-12-07T10:27:29;101471.12;;;5.62;45.53
73566;BME280;61846;52.970;-3.168;2022-12-07T10:29:49;101470.46;;;4.92;46.10
73566;BME280;61846;52.970;-3.168;2022-12-07T10:34:38;101467.87;;;5.63;45.21
73566;BME280;61846;52.970;-3.168;2022-12-07T10:37:16;101468.94;;;6.42;44.07
73566;BME280;61846;52.970;-3.168;2022-12-07T10:41:56;101461.88;;;6.26;43.89
73566;BME280;61846;52.970;-3.168;2022-12-07T10:44:22;101461.29;;;6.61;43.89
73566;BME280;61846;52.970;-3.168;2022-12-07T10:47:06;101461.94;;;6.03;44.32
73566;BME280;61846;52.970;-3.168;2022-12-07T10:51:43;101454.43;;;6.81;43.74
73566;BME280;61846;52.970;-3.168;2022-12-07T10:54:10;101453.01;;;6.98;43.20
73566;BME280;61846;52.970;-3.168;2022-12-07T10:56:41;101454.06;;;3.29;49.22
73566;BME280;61846;52.970;-3.168;2022-12-07T10:59:16;101453.95;;;3.32;49.96
73566;BME280;61846;52.970;-3.168;2022-12-07T11:01:24;101449.05;;;4.09;48.35
73566;BME280;61846;52.970;-3.168;2022-12-07T11:04:06;101442.41;;;5.97;44.83
73566;BME280;61846;52.970;-3.168;2022-12-07T11:06:20;101438.78;;;5.87;44.56
73566;BME280;61846;52.970;-3.168;2022-12-07T11:08:46;101430.55;;;5.93;44.51
73566;BME280;61846;52.970;-3.168;2022-12-07T11:11:06;101426.98;;;5.77;44.95
73566;BME280;61846;52.970;-3.168;2022-12-07T11:13:30;101421.89;;;6.71;43.21
73566;BME280;61846;52.970;-3.168;2022-12-07T11:16:06;101419.80;;;6.78;42.98
73566;BME280;61846;52.970;-3.168;2022-12-07T11:18:24;101421.56;;;6.61;43.74
73566;BME280;61846;52.970;-3.168;2022-12-07T11:20:49;101420.91;;;6.10;44.54
73566;BME280;61846;52.970;-3.168;2022-12-07T11:23:16;101415.39;;;6.46;43.87
73566;BME280;61846;52.970;-3.168;2022-12-07T11:25:39;101408.67;;;7.42;41.82
73566;BME280;61846;52.970;-3.168;2022-12-07T11:28:11;101402.08;;;7.48;41.74
73566;BME280;61846;52.970;-3.168;2022-12-07T11:30:27;101395.25;;;7.10;42.66
73566;BME280;61846;52.970;-3.168;2022-12-07T11:33:02;101389.18;;;7.34;41.77
73566;BME280;61846;52.970;-3.168;2022-12-07T11:35:23;101383.96;;;7.90;41.32
73566;BME280;61846;52.970;-3.168;2022-12-07T11:37:40;101381.73;;;7.28;41.66
73566;BME280;61846;52.970;-3.168;2022-12-07T11:40:14;101376.41;;;6.92;42.70
73566;BME280;61846;52.970;-3.168;2022-12-07T11:42:36;101368.89;;;7.26;42.32
73566;BME280;61846;52.970;-3.168;2022-12-07T11:45:00;101367.75;;;6.42;43.48
73566;BME280;61846;52.970;-3.168;2022-12-07T11:47:28;101359.48;;;7.34;42.23
73566;BME280;61846;52.970;-3.168;2022-12-07T11:49:54;101357.42;;;7.33;42.11
73566;BME280;61846;52.970;-3.168;2022-12-07T11:52:20;101349.84;;;7.73;41.08
73566;BME280;61846;52.970;-3.168;2022-12-07T11:54:41;101351.21;;;7.58;40.63
73566;BME280;61846;52.970;-3.168;2022-12-07T11:57:10;101353.47;;;7.55;41.05
73566;BME280;61846;52.970;-3.168;2022-12-07T11:59:33;101351.83;;;7.48;41.21
73566;BME280;61846;52.970;-3.168;2022-12-07T12:01:58;101345.81;;;7.56;41.23
73566;BME280;61846;52.970;-3.168;2022-12-07T12:04:28;101339.51;;;8.32;40.48
73566;BME280;61846;52.970;-3.168;2022-12-07T12:06:46;101332.78;;;7.72;40.85
73566;BME280;61846;52.970;-3.168;2022-12-07T12:09:13;101336.83;;;7.71;40.46
73566;BME280;61846;52.970;-3.168;2022-12-07T12:11:48;101332.44;;;8.31;39.70
73566;BME280;61846;52.970;-3.168;2022-12-07T12:14:21;101330.45;;;7.94;39.96
73566;BME280;61846;52.970;-3.168;2022-12-07T12:16:42;101328.64;;;8.25;39.61
73566;BME280;61846;52.970;-3.168;2022-12-07T12:19:04;101324.52;;;7.95;39.92
73566;BME280;61846;52.970;-3.168;2022-12-07T12:21:20;101318.50;;;7.82;40.10
73566;BME280;61846;52.970;-3.168;2022-12-07T12:23:49;101316.94;;;7.25;40.57
73566;BME280;61846;52.970;-3.168;2022-12-07T12:26:17;101312.45;;;7.92;40.32
73566;BME280;61846;52.970;-3.168;2022-12-07T12:28:40;101302.94;;;7.49;40.59
73566;BME280;61846;52.970;-3.168;2022-12-07T12:31:08;101297.84;;;6.84;41.64
73566;BME280;61846;52.970;-3.168;2022-12-07T12:33:29;101288.89;;;7.34;40.75
73566;BME280;61846;52.970;-3.168;2022-12-07T12:38:29;101283.64;;;6.25;42.99
73566;BME280;61846;52.970;-3.168;2022-12-07T12:40:45;101279.86;;;6.32;42.00
73566;BME280;61846;52.970;-3.168;2022-12-07T12:45:35;101279.52;;;6.41;42.45
73566;BME280;61846;52.970;-3.168;2022-12-07T12:48:02;101278.29;;;6.83;41.04
73566;BME280;61846;52.970;-3.168;2022-12-07T12:50:30;101274.23;;;7.26;40.90
73566;BME280;61846;52.970;-3.168;2022-12-07T12:52:58;101270.92;;;7.24;40.47
73566;BME280;61846;52.970;-3.168;2022-12-07T12:55:22;101266.72;;;6.93;40.64
73566;BME280;61846;52.970;-3.168;2022-12-07T12:57:44;101267.42;;;6.58;41.31
73566;BME280;61846;52.970;-3.168;2022-12-07T13:00:16;101268.29;;;7.17;40.24